Atchison, Kansas
Current Conditions -  °F | °C
As of 5:53 AM on Friday 21 Nov 2014 (Local Time) from KSTJ Reporting Station
Clear Clear  
Wind Chill: 13°   Ceiling: Unl
Heat Index: 21°   Visibility: 10mi
Dew Point: 14°   Wind: 6mph
Humidity: 74%   Direction: 110°ESE
Pressure: 30.26"   Gusts: NA
Location:  39.56°N, 95.13°W
Report Text: KSTJ 211153Z AUTO 11005KT 10SM CLR M06/M10 A3026 RMK AO2 SLP258 T10611100 11050 21083 56010
Loading
Personal Weather Stations






























Interactive Weather Map New forecast layout! Learn more

10-Day Weather Forecast

Advertisements
Track Severe Weather on mobile